Vb Bretagne — FMHX — position and weather

sailwx.info

Track history (hours):
 
Tides and Currents Weather Stations Pressure Air Temp Water Temp Dewpoint Dewpoint Depression Visibility Wind Speed Wind Dir Waves Ship Positions

Vb Bretagne

Last reported at 2015-Jul-03 16:32 UTC. Time now 2015-Jul-03 17:17 UTC.
Position N 47°16' W 001°52'.

Length 32 m; draft 4.1 m.

Type: Tug. MMSI: 228234700.

Date/timePositionNaut miles runAvg speedWind from/ knotsBaromVisibWave heightAir tempDewpointWater temp
2015-Jul-03 16:32N 47°16' W 001°52'13 1.7
2015-Jul-03 08:31N 47°16' W 002°12'0 0.1
2015-Jul-03 07:30N 47°16' W 002°12'0 0.0
2015-Jul-03 06:28N 47°16' W 002°12'0 0.0
2015-Jul-03 05:33N 47°16' W 002°12'0 0.0
2015-Jul-03 04:33N 47°16' W 002°12'0 0.0
2015-Jul-03 03:33N 47°16' W 002°12'0 0.0
2015-Jul-03 02:33N 47°16' W 002°12'0 0.0
2015-Jul-03 01:32N 47°16' W 002°12'0 0.0
2015-Jul-03 00:33N 47°16' W 002°12'0 0.0
2015-Jul-02 23:31N 47°16' W 002°12'0 0.0
2015-Jul-02 22:33N 47°16' W 002°12'0 0.0
2015-Jul-02 21:33N 47°16' W 002°12'0 0.0
2015-Jul-02 07:13N 47°16' W 002°12'3 1.1
2015-Jul-02 04:30N 47°18' W 002°09'0 0.0
2015-Jul-02 02:33N 47°18' W 002°09'0 0.0
2015-Jul-02 01:33N 47°18' W 002°09'0 0.0
2015-Jul-02 00:33N 47°18' W 002°09'0 0.0
2015-Jul-01 23:33N 47°18' W 002°09'0 0.0
2015-Jul-01 22:33N 47°18' W 002°09'0 0.0
2015-Jul-01 21:33N 47°18' W 002°09'0 0.0
2015-Jul-01 20:33N 47°18' W 002°09'0 0.0
2015-Jul-01 19:33N 47°18' W 002°09'0 0.0
2015-Jul-01 18:33N 47°18' W 002°09'0 0.0
2015-Jul-01 17:33N 47°18' W 002°09'0 0.0
2015-Jul-01 16:33N 47°18' W 002°09'0 0.0
2015-Jul-01 15:33N 47°18' W 002°09'0 0.0
2015-Jul-01 14:33N 47°18' W 002°09'0 0.0
2015-Jul-01 13:33N 47°18' W 002°09'0 0.0
2015-Jul-01 12:31N 47°18' W 002°09'0 0.0
2015-Jul-01 11:31N 47°18' W 002°09'1 0.3
2015-Jul-01 07:18N 47°17' W 002°10'2 1.7
2015-Jul-01 06:12N 47°16' W 002°12'0 0.0
2015-Jul-01 05:26N 47°16' W 002°12'0 0.0
2015-Jul-01 04:30N 47°16' W 002°12'0 0.0
2015-Jul-01 03:32N 47°16' W 002°12'0 0.0
2015-Jul-01 02:21N 47°16' W 002°12'0 0.0
2015-Jul-01 01:33N 47°16' W 002°12'0 0.0
2015-Jun-30 22:27N 47°16' W 002°12'0 0.0
2015-Jun-30 05:05N 47°16' W 002°12'0 0.0
2015-Jun-30 04:27N 47°16' W 002°12'0 0.0
2015-Jun-30 03:21N 47°16' W 002°12'0 0.0
2015-Jun-30 02:28N 47°16' W 002°12'0 0.0
2015-Jun-30 01:31N 47°16' W 002°12'0 0.0
2015-Jun-30 00:22N 47°16' W 002°12'0 0.0
2015-Jun-29 23:33N 47°16' W 002°12'0 0.0
2015-Jun-29 22:31N 47°16' W 002°12'0 0.0
2015-Jun-29 21:32N 47°16' W 002°12'0 0.0
2015-Jun-29 15:27N 47°16' W 002°12'0 0.0
2015-Jun-29 14:30N 47°16' W 002°12'0 0.0
2015-Jun-29 13:29N 47°16' W 002°12'0 0.0
2015-Jun-29 12:33N 47°16' W 002°12'0 0.0
2015-Jun-29 11:33N 47°16' W 002°12'0 0.0
2015-Jun-29 10:33N 47°16' W 002°12'0 0.0
2015-Jun-29 09:33N 47°16' W 002°12'0 0.0
2015-Jun-29 08:26N 47°16' W 002°12'0 0.0
2015-Jun-29 07:30N 47°16' W 002°12'0 0.0
2015-Jun-29 06:29N 47°16' W 002°12'0 0.0
2015-Jun-29 05:33N 47°16' W 002°12'0 0.0
2015-Jun-29 04:32N 47°16' W 002°12'0 0.0
2015-Jun-29 03:26N 47°16' W 002°12'0 0.0
2015-Jun-29 02:32N 47°16' W 002°12'0 0.0
2015-Jun-29 01:33N 47°16' W 002°12'0 0.0
2015-Jun-29 00:32N 47°16' W 002°12'0 0.0
2015-Jun-28 23:33N 47°16' W 002°12'0 0.0
2015-Jun-28 22:32N 47°16' W 002°12'0 0.0
2015-Jun-28 20:25N 47°16' W 002°12'0 0.0
2015-Jun-28 19:07N 47°16' W 002°12'0 0.0
2015-Jun-28 17:06N 47°16' W 002°12'0 0.0
2015-Jun-28 16:15N 47°16' W 002°12'0 0.0
2015-Jun-28 15:30N 47°16' W 002°12'6 5.6
2015-Jun-28 14:27N 47°18' W 002°04'2 1.9
2015-Jun-28 13:30N 47°18' W 002°07'2 1.7
2015-Jun-28 12:31N 47°18' W 002°04'5 4.4
2015-Jun-28 11:29N 47°17' W 002°10'1 0.3
2015-Jun-28 07:27N 47°16' W 002°12'0 0.0
2015-Jun-28 06:33N 47°16' W 002°12'0 0.0
2015-Jun-28 05:32N 47°16' W 002°12'0 0.0
2015-Jun-28 04:33N 47°16' W 002°12'0 0.0
2015-Jun-28 03:31N 47°16' W 002°12'0 0.0
2015-Jun-28 02:33N 47°16' W 002°12'0 0.0
2015-Jun-28 01:33N 47°16' W 002°12'0 0.0
2015-Jun-28 00:33N 47°16' W 002°12'0 0.0
2015-Jun-27 23:33N 47°16' W 002°12'0 0.0
2015-Jun-27 22:33N 47°16' W 002°12'0 0.0
2015-Jun-27 21:33N 47°16' W 002°12'0 0.0
2015-Jun-27 20:33N 47°16' W 002°12'0 0.0
2015-Jun-27 07:11N 47°16' W 002°12'3 4.5
2015-Jun-27 06:33N 47°18' W 002°09'0 0.0
2015-Jun-27 05:33N 47°18' W 002°09'0 0.0
2015-Jun-27 04:32N 47°18' W 002°09'0 0.0
2015-Jun-27 03:32N 47°18' W 002°09'0 0.0
2015-Jun-27 02:32N 47°18' W 002°09'0 0.0
2015-Jun-27 01:31N 47°18' W 002°09'0 0.0
2015-Jun-27 00:31N 47°18' W 002°09'0 0.0
2015-Jun-26 23:21N 47°18' W 002°09'0 0.0
2015-Jun-26 22:31N 47°18' W 002°09'0 0.0
2015-Jun-26 21:33N 47°18' W 002°09'0 0.0
2015-Jun-26 20:33N 47°18' W 002°09'0 0.0
2015-Jun-26 19:32N 47°18' W 002°09'0 0.0
2015-Jun-26 18:33N 47°18' W 002°09'0 0.0
2015-Jun-26 17:33N 47°18' W 002°09'0 0.0
2015-Jun-26 16:32N 47°18' W 002°09'0 0.0
2015-Jun-26 15:33N 47°18' W 002°09'0 0.0
2015-Jun-26 14:33N 47°18' W 002°09'0 0.0
2015-Jun-26 13:33N 47°18' W 002°09'0 0.0
2015-Jun-26 12:33N 47°18' W 002°09'0 0.0
2015-Jun-26 11:33N 47°18' W 002°09'0 0.0
2015-Jun-26 10:33N 47°18' W 002°09'0 0.0
2015-Jun-26 09:33N 47°18' W 002°09'0 0.0
2015-Jun-26 08:33N 47°18' W 002°09'0 0.0
2015-Jun-26 07:33N 47°18' W 002°09'3 2.8
2015-Jun-26 06:33N 47°16' W 002°12'0 0.0
2015-Jun-26 05:33N 47°16' W 002°12'0 0.0
2015-Jun-26 04:33N 47°16' W 002°12'0 0.0
2015-Jun-26 03:33N 47°16' W 002°12'0 0.0
2015-Jun-26 02:33N 47°16' W 002°12'0 0.0
2015-Jun-26 01:33N 47°16' W 002°12'0 0.0
2015-Jun-26 00:33N 47°16' W 002°12'0 0.0
2015-Jun-25 23:33N 47°16' W 002°12'0 0.0
2015-Jun-25 22:33N 47°16' W 002°12'0 0.0
2015-Jun-25 21:33N 47°16' W 002°12'4 4.2
2015-Jun-25 20:33N 47°18' W 002°07'4 3.3
2015-Jun-25 19:20N 47°16' W 002°12'0 0.0
2015-Jun-25 18:14N 47°16' W 002°12'0 0.0
2015-Jun-25 11:25N 47°16' W 002°12'0 0.0
2015-Jun-25 10:32N 47°16' W 002°12'0 0.0
2015-Jun-25 09:31N 47°16' W 002°12'0 0.0
2015-Jun-25 08:24N 47°16' W 002°12'0 0.0
2015-Jun-25 07:33N 47°16' W 002°12'0 0.0
2015-Jun-25 06:32N 47°16' W 002°12'0 0.0
2015-Jun-25 05:32N 47°16' W 002°12'0 0.0
2015-Jun-25 04:33N 47°16' W 002°12'0 0.0
2015-Jun-25 03:33N 47°16' W 002°12'0 0.0
2015-Jun-25 02:28N 47°16' W 002°12'0 0.0
2015-Jun-25 01:33N 47°16' W 002°12'0 0.0
2015-Jun-25 00:33N 47°16' W 002°12'0 0.0
2015-Jun-24 23:33N 47°16' W 002°12'0 0.0
2015-Jun-24 22:33N 47°16' W 002°12'0 0.0
2015-Jun-24 21:33N 47°16' W 002°12'0 0.0
2015-Jun-24 20:33N 47°16' W 002°12'0 0.0
2015-Jun-24 19:33N 47°16' W 002°12'0 0.0
2015-Jun-24 07:29N 47°16' W 002°12'0 0.0
2015-Jun-24 06:33N 47°16' W 002°12'0 0.0
2015-Jun-24 05:33N 47°16' W 002°12'2 2.5
2015-Jun-24 04:33N 47°18' W 002°09'3 3.3
2015-Jun-24 03:33N 47°18' W 002°04'0 0.3
2015-Jun-24 02:33N 47°18' W 002°05'0 0.0
2015-Jun-24 01:33N 47°18' W 002°05'0 0.0
2015-Jun-24 00:32N 47°18' W 002°05'0 0.0
2015-Jun-23 23:31N 47°18' W 002°05'0 0.0
2015-Jun-23 22:22N 47°18' W 002°05'0 0.0
2015-Jun-23 21:32N 47°18' W 002°05'0 0.0
2015-Jun-23 20:31N 47°18' W 002°05'  
Track history (hours):
 
Tides and Currents Weather Stations Pressure Air Temp Water Temp Dewpoint Dewpoint Depression Visibility Wind Speed Wind Dir Waves Ship Positions

Vb Bretagne

Last reported at 2015-Jul-03 16:32 UTC. Time now 2015-Jul-03 17:17 UTC.
Position N 47°16' W 001°52'.

Length 32 m; draft 4.1 m.

Type: Tug. MMSI: 228234700.

Date/timePositionNaut miles runAvg speedWind from/ knotsBaromVisibWave heightAir tempDewpointWater temp
2015-Jul-03 16:32N 47°16' W 001°52'13 1.7
2015-Jul-03 08:31N 47°16' W 002°12'0 0.1
2015-Jul-03 07:30N 47°16' W 002°12'0 0.0
2015-Jul-03 06:28N 47°16' W 002°12'0 0.0
2015-Jul-03 05:33N 47°16' W 002°12'0 0.0
2015-Jul-03 04:33N 47°16' W 002°12'0 0.0
2015-Jul-03 03:33N 47°16' W 002°12'0 0.0
2015-Jul-03 02:33N 47°16' W 002°12'0 0.0
2015-Jul-03 01:32N 47°16' W 002°12'0 0.0
2015-Jul-03 00:33N 47°16' W 002°12'0 0.0
2015-Jul-02 23:31N 47°16' W 002°12'0 0.0
2015-Jul-02 22:33N 47°16' W 002°12'0 0.0
2015-Jul-02 21:33N 47°16' W 002°12'0 0.0
2015-Jul-02 07:13N 47°16' W 002°12'3 1.1
2015-Jul-02 04:30N 47°18' W 002°09'0 0.0
2015-Jul-02 02:33N 47°18' W 002°09'0 0.0
2015-Jul-02 01:33N 47°18' W 002°09'0 0.0
2015-Jul-02 00:33N 47°18' W 002°09'0 0.0
2015-Jul-01 23:33N 47°18' W 002°09'0 0.0
2015-Jul-01 22:33N 47°18' W 002°09'0 0.0
2015-Jul-01 21:33N 47°18' W 002°09'0 0.0
2015-Jul-01 20:33N 47°18' W 002°09'0 0.0
2015-Jul-01 19:33N 47°18' W 002°09'0 0.0
2015-Jul-01 18:33N 47°18' W 002°09'0 0.0
2015-Jul-01 17:33N 47°18' W 002°09'0 0.0
2015-Jul-01 16:33N 47°18' W 002°09'0 0.0
2015-Jul-01 15:33N 47°18' W 002°09'0 0.0
2015-Jul-01 14:33N 47°18' W 002°09'0 0.0
2015-Jul-01 13:33N 47°18' W 002°09'0 0.0
2015-Jul-01 12:31N 47°18' W 002°09'0 0.0
2015-Jul-01 11:31N 47°18' W 002°09'1 0.3
2015-Jul-01 07:18N 47°17' W 002°10'2 1.7
2015-Jul-01 06:12N 47°16' W 002°12'0 0.0
2015-Jul-01 05:26N 47°16' W 002°12'0 0.0
2015-Jul-01 04:30N 47°16' W 002°12'0 0.0
2015-Jul-01 03:32N 47°16' W 002°12'0 0.0
2015-Jul-01 02:21N 47°16' W 002°12'0 0.0
2015-Jul-01 01:33N 47°16' W 002°12'0 0.0
2015-Jun-30 22:27N 47°16' W 002°12'0 0.0
2015-Jun-30 05:05N 47°16' W 002°12'0 0.0
2015-Jun-30 04:27N 47°16' W 002°12'0 0.0
2015-Jun-30 03:21N 47°16' W 002°12'0 0.0
2015-Jun-30 02:28N 47°16' W 002°12'0 0.0
2015-Jun-30 01:31N 47°16' W 002°12'0 0.0
2015-Jun-30 00:22N 47°16' W 002°12'0 0.0
2015-Jun-29 23:33N 47°16' W 002°12'0 0.0
2015-Jun-29 22:31N 47°16' W 002°12'0 0.0
2015-Jun-29 21:32N 47°16' W 002°12'0 0.0
2015-Jun-29 15:27N 47°16' W 002°12'0 0.0
2015-Jun-29 14:30N 47°16' W 002°12'0 0.0
2015-Jun-29 13:29N 47°16' W 002°12'0 0.0
2015-Jun-29 12:33N 47°16' W 002°12'0 0.0
2015-Jun-29 11:33N 47°16' W 002°12'0 0.0
2015-Jun-29 10:33N 47°16' W 002°12'0 0.0
2015-Jun-29 09:33N 47°16' W 002°12'0 0.0
2015-Jun-29 08:26N 47°16' W 002°12'0 0.0
2015-Jun-29 07:30N 47°16' W 002°12'0 0.0
2015-Jun-29 06:29N 47°16' W 002°12'0 0.0
2015-Jun-29 05:33N 47°16' W 002°12'0 0.0
2015-Jun-29 04:32N 47°16' W 002°12'0 0.0
2015-Jun-29 03:26N 47°16' W 002°12'0 0.0
2015-Jun-29 02:32N 47°16' W 002°12'0 0.0
2015-Jun-29 01:33N 47°16' W 002°12'0 0.0
2015-Jun-29 00:32N 47°16' W 002°12'0 0.0
2015-Jun-28 23:33N 47°16' W 002°12'0 0.0
2015-Jun-28 22:32N 47°16' W 002°12'0 0.0
2015-Jun-28 20:25N 47°16' W 002°12'0 0.0
2015-Jun-28 19:07N 47°16' W 002°12'0 0.0
2015-Jun-28 17:06N 47°16' W 002°12'0 0.0
2015-Jun-28 16:15N 47°16' W 002°12'0 0.0
2015-Jun-28 15:30N 47°16' W 002°12'6 5.6
2015-Jun-28 14:27N 47°18' W 002°04'2 1.9
2015-Jun-28 13:30N 47°18' W 002°07'2 1.7
2015-Jun-28 12:31N 47°18' W 002°04'5 4.4
2015-Jun-28 11:29N 47°17' W 002°10'1 0.3
2015-Jun-28 07:27N 47°16' W 002°12'0 0.0
2015-Jun-28 06:33N 47°16' W 002°12'0 0.0
2015-Jun-28 05:32N 47°16' W 002°12'0 0.0
2015-Jun-28 04:33N 47°16' W 002°12'0 0.0
2015-Jun-28 03:31N 47°16' W 002°12'0 0.0
2015-Jun-28 02:33N 47°16' W 002°12'0 0.0
2015-Jun-28 01:33N 47°16' W 002°12'0 0.0
2015-Jun-28 00:33N 47°16' W 002°12'0 0.0
2015-Jun-27 23:33N 47°16' W 002°12'0 0.0
2015-Jun-27 22:33N 47°16' W 002°12'0 0.0
2015-Jun-27 21:33N 47°16' W 002°12'0 0.0
2015-Jun-27 20:33N 47°16' W 002°12'0 0.0
2015-Jun-27 07:11N 47°16' W 002°12'3 4.5
2015-Jun-27 06:33N 47°18' W 002°09'0 0.0
2015-Jun-27 05:33N 47°18' W 002°09'0 0.0
2015-Jun-27 04:32N 47°18' W 002°09'0 0.0
2015-Jun-27 03:32N 47°18' W 002°09'0 0.0
2015-Jun-27 02:32N 47°18' W 002°09'0 0.0
2015-Jun-27 01:31N 47°18' W 002°09'0 0.0
2015-Jun-27 00:31N 47°18' W 002°09'0 0.0
2015-Jun-26 23:21N 47°18' W 002°09'0 0.0
2015-Jun-26 22:31N 47°18' W 002°09'0 0.0
2015-Jun-26 21:33N 47°18' W 002°09'0 0.0
2015-Jun-26 20:33N 47°18' W 002°09'0 0.0
2015-Jun-26 19:32N 47°18' W 002°09'0 0.0
2015-Jun-26 18:33N 47°18' W 002°09'0 0.0
2015-Jun-26 17:33N 47°18' W 002°09'0 0.0
2015-Jun-26 16:32N 47°18' W 002°09'0 0.0
2015-Jun-26 15:33N 47°18' W 002°09'0 0.0
2015-Jun-26 14:33N 47°18' W 002°09'0 0.0
2015-Jun-26 13:33N 47°18' W 002°09'0 0.0
2015-Jun-26 12:33N 47°18' W 002°09'0 0.0
2015-Jun-26 11:33N 47°18' W 002°09'0 0.0
2015-Jun-26 10:33N 47°18' W 002°09'0 0.0
2015-Jun-26 09:33N 47°18' W 002°09'0 0.0
2015-Jun-26 08:33N 47°18' W 002°09'0 0.0
2015-Jun-26 07:33N 47°18' W 002°09'3 2.8
2015-Jun-26 06:33N 47°16' W 002°12'0 0.0
2015-Jun-26 05:33N 47°16' W 002°12'0 0.0
2015-Jun-26 04:33N 47°16' W 002°12'0 0.0
2015-Jun-26 03:33N 47°16' W 002°12'0 0.0
2015-Jun-26 02:33N 47°16' W 002°12'0 0.0
2015-Jun-26 01:33N 47°16' W 002°12'0 0.0
2015-Jun-26 00:33N 47°16' W 002°12'0 0.0
2015-Jun-25 23:33N 47°16' W 002°12'0 0.0
2015-Jun-25 22:33N 47°16' W 002°12'0 0.0
2015-Jun-25 21:33N 47°16' W 002°12'4 4.2
2015-Jun-25 20:33N 47°18' W 002°07'4 3.3
2015-Jun-25 19:20N 47°16' W 002°12'0 0.0
2015-Jun-25 18:14N 47°16' W 002°12'0 0.0
2015-Jun-25 11:25N 47°16' W 002°12'0 0.0
2015-Jun-25 10:32N 47°16' W 002°12'0 0.0
2015-Jun-25 09:31N 47°16' W 002°12'0 0.0
2015-Jun-25 08:24N 47°16' W 002°12'0 0.0
2015-Jun-25 07:33N 47°16' W 002°12'0 0.0
2015-Jun-25 06:32N 47°16' W 002°12'0 0.0
2015-Jun-25 05:32N 47°16' W 002°12'0 0.0
2015-Jun-25 04:33N 47°16' W 002°12'0 0.0
2015-Jun-25 03:33N 47°16' W 002°12'0 0.0
2015-Jun-25 02:28N 47°16' W 002°12'0 0.0
2015-Jun-25 01:33N 47°16' W 002°12'0 0.0
2015-Jun-25 00:33N 47°16' W 002°12'0 0.0
2015-Jun-24 23:33N 47°16' W 002°12'0 0.0
2015-Jun-24 22:33N 47°16' W 002°12'0 0.0
2015-Jun-24 21:33N 47°16' W 002°12'0 0.0
2015-Jun-24 20:33N 47°16' W 002°12'0 0.0
2015-Jun-24 19:33N 47°16' W 002°12'0 0.0
2015-Jun-24 07:29N 47°16' W 002°12'0 0.0
2015-Jun-24 06:33N 47°16' W 002°12'0 0.0
2015-Jun-24 05:33N 47°16' W 002°12'2 2.5
2015-Jun-24 04:33N 47°18' W 002°09'3 3.3
2015-Jun-24 03:33N 47°18' W 002°04'0 0.3
2015-Jun-24 02:33N 47°18' W 002°05'0 0.0
2015-Jun-24 01:33N 47°18' W 002°05'0 0.0
2015-Jun-24 00:32N 47°18' W 002°05'0 0.0
2015-Jun-23 23:31N 47°18' W 002°05'0 0.0
2015-Jun-23 22:22N 47°18' W 002°05'0 0.0
2015-Jun-23 21:32N 47°18' W 002°05'0 0.0
2015-Jun-23 20:31N 47°18' W 002°05'  

Dump ship's entire track history